sensor_id;sensor_type;location;lat;lon;timestamp;P1;durP1;ratioP1;P2;durP2;ratioP2
17812;SDS011;9030;50.792;8.320;2023-06-24T00:01:28;15.75;;;10.73;;
17812;SDS011;9030;50.792;8.320;2023-06-24T00:03:56;17.02;;;12.25;;
17812;SDS011;9030;50.792;8.320;2023-06-24T00:06:23;15.35;;;11.65;;
17812;SDS011;9030;50.792;8.320;2023-06-24T00:08:51;16.92;;;11.70;;
17812;SDS011;9030;50.792;8.320;2023-06-24T00:11:23;15.70;;;11.77;;
17812;SDS011;9030;50.792;8.320;2023-06-24T00:13:50;13.77;;;11.05;;
17812;SDS011;9030;50.792;8.320;2023-06-24T00:16:17;13.55;;;10.77;;
17812;SDS011;9030;50.792;8.320;2023-06-24T00:18:52;14.63;;;12.65;;
17812;SDS011;9030;50.792;8.320;2023-06-24T00:21:23;15.70;;;11.85;;
17812;SDS011;9030;50.792;8.320;2023-06-24T00:23:55;16.50;;;12.65;;
17812;SDS011;9030;50.792;8.320;2023-06-24T00:26:23;15.93;;;12.55;;
17812;SDS011;9030;50.792;8.320;2023-06-24T00:28:50;16.33;;;12.07;;
17812;SDS011;9030;50.792;8.320;2023-06-24T00:31:17;14.80;;;11.80;;
17812;SDS011;9030;50.792;8.320;2023-06-24T00:33:45;16.63;;;13.32;;
17812;SDS011;9030;50.792;8.320;2023-06-24T00:36:11;17.40;;;12.77;;
17812;SDS011;9030;50.792;8.320;2023-06-24T00:38:38;15.25;;;11.98;;
17812;SDS011;9030;50.792;8.320;2023-06-24T00:41:05;15.82;;;12.52;;
17812;SDS011;9030;50.792;8.320;2023-06-24T00:43:34;17.08;;;14.23;;
17812;SDS011;9030;50.792;8.320;2023-06-24T00:46:02;19.52;;;12.27;;
17812;SDS011;9030;50.792;8.320;2023-06-24T00:48:31;19.65;;;13.27;;
17812;SDS011;9030;50.792;8.320;2023-06-24T00:50:58;16.45;;;12.73;;
17812;SDS011;9030;50.792;8.320;2023-06-24T00:53:25;17.98;;;12.88;;
17812;SDS011;9030;50.792;8.320;2023-06-24T00:55:51;18.55;;;12.98;;
17812;SDS011;9030;50.792;8.320;2023-06-24T00:58:19;16.90;;;11.85;;
17812;SDS011;9030;50.792;8.320;2023-06-24T01:00:48;14.80;;;12.05;;
17812;SDS011;9030;50.792;8.320;2023-06-24T01:03:22;15.40;;;12.95;;
17812;SDS011;9030;50.792;8.320;2023-06-24T01:05:50;15.23;;;11.63;;
17812;SDS011;9030;50.792;8.320;2023-06-24T01:08:17;18.60;;;11.95;;
17812;SDS011;9030;50.792;8.320;2023-06-24T01:10:48;17.80;;;13.63;;
17812;SDS011;9030;50.792;8.320;2023-06-24T01:13:15;17.08;;;12.48;;
17812;SDS011;9030;50.792;8.320;2023-06-24T01:15:42;15.82;;;12.15;;
17812;SDS011;9030;50.792;8.320;2023-06-24T01:18:13;15.45;;;12.70;;
17812;SDS011;9030;50.792;8.320;2023-06-24T01:20:47;13.98;;;11.65;;
17812;SDS011;9030;50.792;8.320;2023-06-24T01:26:14;15.85;;;11.65;;
17812;SDS011;9030;50.792;8.320;2023-06-24T01:28:52;14.40;;;12.27;;
17812;SDS011;9030;50.792;8.320;2023-06-24T01:31:38;13.77;;;11.63;;
17812;SDS011;9030;50.792;8.320;2023-06-24T01:34:12;17.75;;;13.27;;
17812;SDS011;9030;50.792;8.320;2023-06-24T01:36:55;15.15;;;11.88;;
17812;SDS011;9030;50.792;8.320;2023-06-24T01:39:29;15.27;;;12.10;;
17812;SDS011;9030;50.792;8.320;2023-06-24T01:42:00;17.52;;;12.80;;
17812;SDS011;9030;50.792;8.320;2023-06-24T01:44:33;13.77;;;11.85;;
17812;SDS011;9030;50.792;8.320;2023-06-24T01:47:03;14.32;;;10.82;;
17812;SDS011;9030;50.792;8.320;2023-06-24T01:49:32;15.10;;;12.10;;
17812;SDS011;9030;50.792;8.320;2023-06-24T01:52:02;13.63;;;11.75;;
17812;SDS011;9030;50.792;8.320;2023-06-24T01:54:31;14.45;;;12.30;;
17812;SDS011;9030;50.792;8.320;2023-06-24T01:57:00;16.23;;;13.07;;
17812;SDS011;9030;50.792;8.320;2023-06-24T01:59:29;16.55;;;12.35;;
17812;SDS011;9030;50.792;8.320;2023-06-24T02:01:57;16.33;;;11.13;;
17812;SDS011;9030;50.792;8.320;2023-06-24T02:04:27;14.25;;;12.20;;
17812;SDS011;9030;50.792;8.320;2023-06-24T02:06:56;17.58;;;11.68;;
17812;SDS011;9030;50.792;8.320;2023-06-24T02:09:26;15.38;;;12.27;;
17812;SDS011;9030;50.792;8.320;2023-06-24T02:11:55;15.43;;;11.77;;
17812;SDS011;9030;50.792;8.320;2023-06-24T02:14:23;17.17;;;12.73;;
17812;SDS011;9030;50.792;8.320;2023-06-24T02:16:52;17.38;;;11.95;;
17812;SDS011;9030;50.792;8.320;2023-06-24T02:19:22;13.18;;;11.27;;
17812;SDS011;9030;50.792;8.320;2023-06-24T02:21:51;15.05;;;12.00;;
17812;SDS011;9030;50.792;8.320;2023-06-24T02:24:19;13.75;;;11.70;;
17812;SDS011;9030;50.792;8.320;2023-06-24T02:26:46;13.68;;;11.52;;
17812;SDS011;9030;50.792;8.320;2023-06-24T02:29:14;12.50;;;10.88;;
17812;SDS011;9030;50.792;8.320;2023-06-24T02:31:41;15.32;;;11.52;;
17812;SDS011;9030;50.792;8.320;2023-06-24T02:34:07;15.30;;;12.20;;
17812;SDS011;9030;50.792;8.320;2023-06-24T02:36:34;15.10;;;12.70;;
17812;SDS011;9030;50.792;8.320;2023-06-24T02:39:02;16.77;;;12.05;;
17812;SDS011;9030;50.792;8.320;2023-06-24T02:41:29;17.00;;;11.82;;
17812;SDS011;9030;50.792;8.320;2023-06-24T02:43:55;18.58;;;13.93;;
17812;SDS011;9030;50.792;8.320;2023-06-24T02:46:22;17.08;;;13.02;;
17812;SDS011;9030;50.792;8.320;2023-06-24T02:48:50;15.23;;;13.13;;
17812;SDS011;9030;50.792;8.320;2023-06-24T02:51:18;14.98;;;12.95;;
17812;SDS011;9030;50.792;8.320;2023-06-24T02:53:45;15.88;;;11.95;;
17812;SDS011;9030;50.792;8.320;2023-06-24T02:56:14;16.52;;;13.48;;
17812;SDS011;9030;50.792;8.320;2023-06-24T02:58:45;15.82;;;11.98;;
17812;SDS011;9030;50.792;8.320;2023-06-24T03:01:12;14.90;;;12.35;;
17812;SDS011;9030;50.792;8.320;2023-06-24T03:03:40;16.95;;;12.68;;
17812;SDS011;9030;50.792;8.320;2023-06-24T03:06:08;16.60;;;12.90;;
17812;SDS011;9030;50.792;8.320;2023-06-24T03:08:37;16.30;;;12.07;;
17812;SDS011;9030;50.792;8.320;2023-06-24T03:11:04;15.77;;;12.57;;
17812;SDS011;9030;50.792;8.320;2023-06-24T03:13:32;16.20;;;12.93;;
17812;SDS011;9030;50.792;8.320;2023-06-24T03:15:59;15.88;;;14.18;;
17812;SDS011;9030;50.792;8.320;2023-06-24T03:18:26;12.85;;;11.40;;
17812;SDS011;9030;50.792;8.320;2023-06-24T03:20:52;14.52;;;11.45;;
17812;SDS011;9030;50.792;8.320;2023-06-24T03:23:19;14.98;;;11.98;;
17812;SDS011;9030;50.792;8.320;2023-06-24T03:25:45;18.27;;;13.23;;
17812;SDS011;9030;50.792;8.320;2023-06-24T03:28:12;18.65;;;12.95;;
17812;SDS011;9030;50.792;8.320;2023-06-24T03:30:40;14.38;;;11.60;;
17812;SDS011;9030;50.792;8.320;2023-06-24T03:33:07;14.10;;;12.60;;
17812;SDS011;9030;50.792;8.320;2023-06-24T03:35:33;15.57;;;12.65;;
17812;SDS011;9030;50.792;8.320;2023-06-24T03:38:00;18.58;;;13.05;;
17812;SDS011;9030;50.792;8.320;2023-06-24T03:40:26;15.27;;;12.35;;
17812;SDS011;9030;50.792;8.320;2023-06-24T03:42:53;13.82;;;12.05;;
17812;SDS011;9030;50.792;8.320;2023-06-24T03:45:23;16.00;;;13.43;;
17812;SDS011;9030;50.792;8.320;2023-06-24T03:47:51;15.05;;;12.90;;
17812;SDS011;9030;50.792;8.320;2023-06-24T03:50:17;15.27;;;12.90;;
17812;SDS011;9030;50.792;8.320;2023-06-24T03:52:44;13.55;;;11.80;;
17812;SDS011;9030;50.792;8.320;2023-06-24T03:55:11;16.50;;;11.77;;
17812;SDS011;9030;50.792;8.320;2023-06-24T03:57:37;14.23;;;12.13;;
17812;SDS011;9030;50.792;8.320;2023-06-24T04:00:04;14.98;;;11.95;;
17812;SDS011;9030;50.792;8.320;2023-06-24T04:02:38;15.40;;;12.85;;
17812;SDS011;9030;50.792;8.320;2023-06-24T04:05:08;14.20;;;11.65;;
17812;SDS011;9030;50.792;8.320;2023-06-24T04:07:36;14.68;;;11.63;;
17812;SDS011;9030;50.792;8.320;2023-06-24T04:10:03;16.88;;;13.48;;
17812;SDS011;9030;50.792;8.320;2023-06-24T04:12:33;13.88;;;12.30;;
17812;SDS011;9030;50.792;8.320;2023-06-24T04:15:00;13.65;;;11.65;;
17812;SDS011;9030;50.792;8.320;2023-06-24T04:17:28;16.38;;;12.73;;
17812;SDS011;9030;50.792;8.320;2023-06-24T04:19:54;17.10;;;12.52;;
17812;SDS011;9030;50.792;8.320;2023-06-24T04:22:22;15.52;;;11.52;;
17812;SDS011;9030;50.792;8.320;2023-06-24T04:24:49;14.27;;;12.75;;
17812;SDS011;9030;50.792;8.320;2023-06-24T04:27:16;12.18;;;10.85;;
17812;SDS011;9030;50.792;8.320;2023-06-24T04:29:43;16.08;;;11.85;;
17812;SDS011;9030;50.792;8.320;2023-06-24T04:32:09;14.07;;;12.23;;
17812;SDS011;9030;50.792;8.320;2023-06-24T04:34:36;14.93;;;11.98;;
17812;SDS011;9030;50.792;8.320;2023-06-24T04:37:03;14.60;;;10.95;;
17812;SDS011;9030;50.792;8.320;2023-06-24T04:39:31;14.27;;;11.00;;
17812;SDS011;9030;50.792;8.320;2023-06-24T04:41:58;13.13;;;10.23;;
17812;SDS011;9030;50.792;8.320;2023-06-24T04:44:25;13.45;;;11.00;;
17812;SDS011;9030;50.792;8.320;2023-06-24T04:46:52;12.85;;;10.98;;
17812;SDS011;9030;50.792;8.320;2023-06-24T04:49:18;12.13;;;10.25;;
17812;SDS011;9030;50.792;8.320;2023-06-24T04:51:45;14.80;;;10.57;;
17812;SDS011;9030;50.792;8.320;2023-06-24T04:54:12;14.63;;;12.32;;
17812;SDS011;9030;50.792;8.320;2023-06-24T04:56:40;13.43;;;10.82;;
17812;SDS011;9030;50.792;8.320;2023-06-24T04:59:08;13.38;;;10.43;;
17812;SDS011;9030;50.792;8.320;2023-06-24T05:01:34;17.25;;;11.38;;
17812;SDS011;9030;50.792;8.320;2023-06-24T05:04:01;13.80;;;10.73;;
17812;SDS011;9030;50.792;8.320;2023-06-24T05:06:28;12.30;;;10.73;;
17812;SDS011;9030;50.792;8.320;2023-06-24T05:08:54;13.13;;;11.45;;
17812;SDS011;9030;50.792;8.320;2023-06-24T05:11:21;13.55;;;11.63;;
17812;SDS011;9030;50.792;8.320;2023-06-24T05:13:49;13.25;;;10.52;;
17812;SDS011;9030;50.792;8.320;2023-06-24T05:16:16;16.85;;;11.48;;
17812;SDS011;9030;50.792;8.320;2023-06-24T05:18:43;12.88;;;10.82;;
17812;SDS011;9030;50.792;8.320;2023-06-24T05:21:10;13.70;;;11.75;;
17812;SDS011;9030;50.792;8.320;2023-06-24T05:23:36;15.85;;;13.10;;
17812;SDS011;9030;50.792;8.320;2023-06-24T05:26:03;12.82;;;11.45;;
17812;SDS011;9030;50.792;8.320;2023-06-24T05:28:30;14.77;;;10.48;;
17812;SDS011;9030;50.792;8.320;2023-06-24T05:30:58;18.23;;;11.77;;
17812;SDS011;9030;50.792;8.320;2023-06-24T05:33:24;13.98;;;12.02;;
17812;SDS011;9030;50.792;8.320;2023-06-24T05:35:51;13.70;;;10.55;;
17812;SDS011;9030;50.792;8.320;2023-06-24T05:38:18;15.75;;;10.20;;
17812;SDS011;9030;50.792;8.320;2023-06-24T05:40:45;14.50;;;9.90;;
17812;SDS011;9030;50.792;8.320;2023-06-24T05:43:11;14.25;;;10.20;;
17812;SDS011;9030;50.792;8.320;2023-06-24T05:45:38;11.82;;;9.30;;
17812;SDS011;9030;50.792;8.320;2023-06-24T05:48:06;12.95;;;9.40;;
17812;SDS011;9030;50.792;8.320;2023-06-24T05:50:33;12.27;;;9.65;;
17812;SDS011;9030;50.792;8.320;2023-06-24T05:52:59;11.60;;;9.55;;
17812;SDS011;9030;50.792;8.320;2023-06-24T05:55:26;12.55;;;9.38;;
17812;SDS011;9030;50.792;8.320;2023-06-24T05:57:53;13.95;;;9.80;;
17812;SDS011;9030;50.792;8.320;2023-06-24T06:00:19;14.57;;;9.48;;
17812;SDS011;9030;50.792;8.320;2023-06-24T06:02:46;12.30;;;10.45;;
17812;SDS011;9030;50.792;8.320;2023-06-24T06:05:14;13.90;;;9.73;;
17812;SDS011;9030;50.792;8.320;2023-06-24T06:07:41;13.50;;;10.20;;
17812;SDS011;9030;50.792;8.320;2023-06-24T06:10:09;13.07;;;10.73;;
17812;SDS011;9030;50.792;8.320;2023-06-24T06:12:35;13.52;;;10.45;;
17812;SDS011;9030;50.792;8.320;2023-06-24T06:15:02;12.98;;;9.20;;
17812;SDS011;9030;50.792;8.320;2023-06-24T06:17:29;12.48;;;9.57;;
17812;SDS011;9030;50.792;8.320;2023-06-24T06:19:56;12.98;;;9.40;;
17812;SDS011;9030;50.792;8.320;2023-06-24T06:22:24;14.85;;;10.38;;
17812;SDS011;9030;50.792;8.320;2023-06-24T06:24:51;12.20;;;9.57;;
17812;SDS011;9030;50.792;8.320;2023-06-24T06:27:17;13.07;;;7.55;;
17812;SDS011;9030;50.792;8.320;2023-06-24T06:29:44;11.57;;;7.40;;
17812;SDS011;9030;50.792;8.320;2023-06-24T06:32:11;13.55;;;9.50;;
17812;SDS011;9030;50.792;8.320;2023-06-24T06:34:37;16.35;;;9.55;;
17812;SDS011;9030;50.792;8.320;2023-06-24T06:37:04;11.48;;;7.75;;
17812;SDS011;9030;50.792;8.320;2023-06-24T06:39:32;12.82;;;8.10;;
17812;SDS011;9030;50.792;8.320;2023-06-24T06:41:59;12.43;;;9.10;;
17812;SDS011;9030;50.792;8.320;2023-06-24T06:44:26;12.23;;;8.93;;
17812;SDS011;9030;50.792;8.320;2023-06-24T06:46:52;11.75;;;9.60;;
17812;SDS011;9030;50.792;8.320;2023-06-24T06:49:19;12.27;;;6.85;;
17812;SDS011;9030;50.792;8.320;2023-06-24T06:51:47;11.80;;;9.30;;
17812;SDS011;9030;50.792;8.320;2023-06-24T06:54:14;11.30;;;8.25;;
17812;SDS011;9030;50.792;8.320;2023-06-24T06:56:42;13.18;;;7.90;;
17812;SDS011;9030;50.792;8.320;2023-06-24T06:59:08;11.30;;;7.68;;
17812;SDS011;9030;50.792;8.320;2023-06-24T07:01:35;20.23;;;9.50;;
17812;SDS011;9030;50.792;8.320;2023-06-24T07:04:02;15.27;;;7.97;;
17812;SDS011;9030;50.792;8.320;2023-06-24T07:06:29;17.35;;;9.48;;
17812;SDS011;9030;50.792;8.320;2023-06-24T07:08:57;11.63;;;7.93;;
17812;SDS011;9030;50.792;8.320;2023-06-24T07:11:24;12.00;;;8.20;;
17812;SDS011;9030;50.792;8.320;2023-06-24T07:13:52;15.38;;;7.85;;
17812;SDS011;9030;50.792;8.320;2023-06-24T07:16:19;10.25;;;7.82;;
17812;SDS011;9030;50.792;8.320;2023-06-24T07:18:46;12.27;;;6.97;;
17812;SDS011;9030;50.792;8.320;2023-06-24T07:21:13;10.40;;;6.22;;
17812;SDS011;9030;50.792;8.320;2023-06-24T07:23:39;11.38;;;7.18;;
17812;SDS011;9030;50.792;8.320;2023-06-24T07:26:06;9.63;;;6.70;;
17812;SDS011;9030;50.792;8.320;2023-06-24T07:28:33;9.63;;;6.68;;
17812;SDS011;9030;50.792;8.320;2023-06-24T07:31:01;10.60;;;6.97;;
17812;SDS011;9030;50.792;8.320;2023-06-24T07:33:28;10.25;;;7.00;;
17812;SDS011;9030;50.792;8.320;2023-06-24T07:35:55;10.50;;;6.20;;
17812;SDS011;9030;50.792;8.320;2023-06-24T07:38:22;12.18;;;8.02;;
17812;SDS011;9030;50.792;8.320;2023-06-24T07:40:49;11.18;;;6.68;;
17812;SDS011;9030;50.792;8.320;2023-06-24T07:43:15;12.68;;;7.18;;
17812;SDS011;9030;50.792;8.320;2023-06-24T07:45:42;9.88;;;6.75;;
17812;SDS011;9030;50.792;8.320;2023-06-24T07:48:10;10.18;;;7.20;;
17812;SDS011;9030;50.792;8.320;2023-06-24T07:50:37;14.20;;;7.35;;
17812;SDS011;9030;50.792;8.320;2023-06-24T07:53:04;10.43;;;6.22;;
17812;SDS011;9030;50.792;8.320;2023-06-24T07:55:31;12.63;;;7.00;;
17812;SDS011;9030;50.792;8.320;2023-06-24T07:57:57;9.70;;;7.30;;
17812;SDS011;9030;50.792;8.320;2023-06-24T08:00:24;12.32;;;6.05;;
17812;SDS011;9030;50.792;8.320;2023-06-24T08:02:51;11.63;;;8.05;;
17812;SDS011;9030;50.792;8.320;2023-06-24T08:05:19;10.20;;;6.57;;
17812;SDS011;9030;50.792;8.320;2023-06-24T08:07:46;14.65;;;7.78;;
17812;SDS011;9030;50.792;8.320;2023-06-24T08:10:13;11.38;;;8.02;;
17812;SDS011;9030;50.792;8.320;2023-06-24T08:12:39;16.45;;;8.32;;
17812;SDS011;9030;50.792;8.320;2023-06-24T08:15:07;11.15;;;7.75;;
17812;SDS011;9030;50.792;8.320;2023-06-24T08:17:34;13.20;;;8.52;;
17812;SDS011;9030;50.792;8.320;2023-06-24T08:20:00;13.18;;;8.38;;
17812;SDS011;9030;50.792;8.320;2023-06-24T08:22:29;11.98;;;8.70;;
17812;SDS011;9030;50.792;8.320;2023-06-24T08:24:56;16.27;;;11.13;;
17812;SDS011;9030;50.792;8.320;2023-06-24T08:27:22;14.07;;;9.15;;
17812;SDS011;9030;50.792;8.320;2023-06-24T08:29:49;13.23;;;9.57;;
17812;SDS011;9030;50.792;8.320;2023-06-24T08:32:16;13.30;;;8.02;;
17812;SDS011;9030;50.792;8.320;2023-06-24T08:34:42;12.45;;;10.00;;
17812;SDS011;9030;50.792;8.320;2023-06-24T08:37:09;12.27;;;9.40;;
17812;SDS011;9030;50.792;8.320;2023-06-24T08:39:37;14.52;;;9.13;;
17812;SDS011;9030;50.792;8.320;2023-06-24T08:42:04;12.23;;;7.80;;
17812;SDS011;9030;50.792;8.320;2023-06-24T08:44:31;13.98;;;8.30;;
17812;SDS011;9030;50.792;8.320;2023-06-24T08:46:57;12.95;;;8.90;;
17812;SDS011;9030;50.792;8.320;2023-06-24T08:49:26;9.15;;;6.32;;
17812;SDS011;9030;50.792;8.320;2023-06-24T08:51:58;14.38;;;8.07;;
17812;SDS011;9030;50.792;8.320;2023-06-24T08:54:28;9.55;;;6.43;;
17812;SDS011;9030;50.792;8.320;2023-06-24T08:56:58;12.15;;;6.85;;
17812;SDS011;9030;50.792;8.320;2023-06-24T08:59:26;10.85;;;6.65;;
17812;SDS011;9030;50.792;8.320;2023-06-24T09:01:53;8.93;;;6.63;;
17812;SDS011;9030;50.792;8.320;2023-06-24T09:04:20;11.27;;;6.95;;
17812;SDS011;9030;50.792;8.320;2023-06-24T09:06:46;13.27;;;8.10;;
17812;SDS011;9030;50.792;8.320;2023-06-24T09:09:19;10.68;;;7.13;;
17812;SDS011;9030;50.792;8.320;2023-06-24T09:11:53;8.48;;;6.25;;
17812;SDS011;9030;50.792;8.320;2023-06-24T09:14:22;12.30;;;7.22;;
17812;SDS011;9030;50.792;8.320;2023-06-24T09:16:51;7.35;;;5.00;;
17812;SDS011;9030;50.792;8.320;2023-06-24T09:19:21;11.50;;;6.57;;
17812;SDS011;9030;50.792;8.320;2023-06-24T09:21:49;8.32;;;6.63;;
17812;SDS011;9030;50.792;8.320;2023-06-24T09:24:16;11.82;;;6.43;;
17812;SDS011;9030;50.792;8.320;2023-06-24T09:26:43;8.98;;;5.93;;
17812;SDS011;9030;50.792;8.320;2023-06-24T09:29:11;12.43;;;6.38;;
17812;SDS011;9030;50.792;8.320;2023-06-24T09:31:46;11.60;;;6.47;;
17812;SDS011;9030;50.792;8.320;2023-06-24T09:34:14;8.73;;;5.93;;
17812;SDS011;9030;50.792;8.320;2023-06-24T09:36:44;10.85;;;7.25;;
17812;SDS011;9030;50.792;8.320;2023-06-24T09:39:11;10.35;;;6.60;;
17812;SDS011;9030;50.792;8.320;2023-06-24T09:41:40;8.45;;;6.65;;
17812;SDS011;9030;50.792;8.320;2023-06-24T09:44:07;10.23;;;6.38;;
17812;SDS011;9030;50.792;8.320;2023-06-24T09:46:36;10.18;;;7.03;;
17812;SDS011;9030;50.792;8.320;2023-06-24T09:49:04;13.50;;;8.07;;
17812;SDS011;9030;50.792;8.320;2023-06-24T09:51:32;12.00;;;7.40;;
17812;SDS011;9030;50.792;8.320;2023-06-24T09:54:04;9.57;;;6.93;;
17812;SDS011;9030;50.792;8.320;2023-06-24T09:56:32;14.48;;;6.68;;
17812;SDS011;9030;50.792;8.320;2023-06-24T09:59:02;11.60;;;6.75;;
17812;SDS011;9030;50.792;8.320;2023-06-24T10:01:30;9.05;;;6.63;;
17812;SDS011;9030;50.792;8.320;2023-06-24T10:03:58;9.60;;;7.63;;
17812;SDS011;9030;50.792;8.320;2023-06-24T10:06:28;10.00;;;6.82;;
17812;SDS011;9030;50.792;8.320;2023-06-24T10:08:55;12.32;;;7.65;;
17812;SDS011;9030;50.792;8.320;2023-06-24T10:11:22;11.82;;;6.93;;
17812;SDS011;9030;50.792;8.320;2023-06-24T10:13:48;9.93;;;6.63;;
17812;SDS011;9030;50.792;8.320;2023-06-24T10:16:15;7.80;;;5.57;;
17812;SDS011;9030;50.792;8.320;2023-06-24T10:18:43;10.15;;;6.75;;
17812;SDS011;9030;50.792;8.320;2023-06-24T10:21:10;10.65;;;7.13;;
17812;SDS011;9030;50.792;8.320;2023-06-24T10:23:43;12.93;;;6.22;;
17812;SDS011;9030;50.792;8.320;2023-06-24T10:26:21;9.73;;;6.25;;
17812;SDS011;9030;50.792;8.320;2023-06-24T10:29:08;7.53;;;5.88;;
17812;SDS011;9030;50.792;8.320;2023-06-24T10:31:51;10.88;;;6.43;;
17812;SDS011;9030;50.792;8.320;2023-06-24T10:34:32;11.23;;;6.55;;
17812;SDS011;9030;50.792;8.320;2023-06-24T10:37:00;8.75;;;6.65;;
17812;SDS011;9030;50.792;8.320;2023-06-24T10:39:36;9.32;;;5.88;;
17812;SDS011;9030;50.792;8.320;2023-06-24T10:44:52;10.05;;;5.70;;
17812;SDS011;9030;50.792;8.320;2023-06-24T10:47:21;9.30;;;6.57;;
17812;SDS011;9030;50.792;8.320;2023-06-24T10:49:48;8.10;;;5.85;;
17812;SDS011;9030;50.792;8.320;2023-06-24T10:52:16;8.65;;;5.68;;
17812;SDS011;9030;50.792;8.320;2023-06-24T10:54:46;8.18;;;5.45;;
17812;SDS011;9030;50.792;8.320;2023-06-24T10:57:13;8.07;;;5.85;;
17812;SDS011;9030;50.792;8.320;2023-06-24T10:59:40;8.02;;;5.45;;
17812;SDS011;9030;50.792;8.320;2023-06-24T11:02:07;10.15;;;6.18;;
17812;SDS011;9030;50.792;8.320;2023-06-24T11:04:41;9.98;;;5.97;;
17812;SDS011;9030;50.792;8.320;2023-06-24T11:07:09;7.45;;;5.45;;
17812;SDS011;9030;50.792;8.320;2023-06-24T11:09:36;8.27;;;5.55;;
17812;SDS011;9030;50.792;8.320;2023-06-24T11:12:04;12.07;;;5.47;;
17812;SDS011;9030;50.792;8.320;2023-06-24T11:14:32;9.27;;;6.18;;
17812;SDS011;9030;50.792;8.320;2023-06-24T11:17:00;9.05;;;5.97;;
17812;SDS011;9030;50.792;8.320;2023-06-24T11:19:29;9.65;;;5.60;;
17812;SDS011;9030;50.792;8.320;2023-06-24T11:21:58;9.75;;;6.35;;
17812;SDS011;9030;50.792;8.320;2023-06-24T11:24:26;8.45;;;5.68;;
17812;SDS011;9030;50.792;8.320;2023-06-24T11:26:52;9.77;;;5.63;;
17812;SDS011;9030;50.792;8.320;2023-06-24T11:29:20;10.63;;;5.50;;
17812;SDS011;9030;50.792;8.320;2023-06-24T11:31:47;7.53;;;5.18;;
17812;SDS011;9030;50.792;8.320;2023-06-24T11:34:14;8.93;;;5.60;;
17812;SDS011;9030;50.792;8.320;2023-06-24T11:36:41;9.52;;;5.10;;
17812;SDS011;9030;50.792;8.320;2023-06-24T11:39:08;20.80;;;7.85;;
17812;SDS011;9030;50.792;8.320;2023-06-24T11:41:36;11.35;;;7.38;;
17812;SDS011;9030;50.792;8.320;2023-06-24T11:44:04;10.20;;;7.18;;
17812;SDS011;9030;50.792;8.320;2023-06-24T11:46:33;9.25;;;6.90;;
17812;SDS011;9030;50.792;8.320;2023-06-24T11:49:03;8.82;;;6.18;;
17812;SDS011;9030;50.792;8.320;2023-06-24T11:51:30;9.07;;;5.93;;
17812;SDS011;9030;50.792;8.320;2023-06-24T11:53:58;11.93;;;6.65;;
17812;SDS011;9030;50.792;8.320;2023-06-24T11:56:33;9.75;;;5.35;;
17812;SDS011;9030;50.792;8.320;2023-06-24T11:59:03;9.52;;;5.35;;
17812;SDS011;9030;50.792;8.320;2023-06-24T12:01:30;8.57;;;5.43;;
17812;SDS011;9030;50.792;8.320;2023-06-24T12:03:59;8.77;;;5.45;;
17812;SDS011;9030;50.792;8.320;2023-06-24T12:06:26;8.90;;;5.40;;
17812;SDS011;9030;50.792;8.320;2023-06-24T12:08:52;7.70;;;4.80;;
17812;SDS011;9030;50.792;8.320;2023-06-24T12:11:19;8.30;;;5.60;;
17812;SDS011;9030;50.792;8.320;2023-06-24T12:13:46;9.30;;;6.05;;
17812;SDS011;9030;50.792;8.320;2023-06-24T12:16:12;7.35;;;5.32;;
17812;SDS011;9030;50.792;8.320;2023-06-24T12:18:39;9.05;;;5.32;;
17812;SDS011;9030;50.792;8.320;2023-06-24T12:21:07;8.07;;;5.35;;
17812;SDS011;9030;50.792;8.320;2023-06-24T12:23:33;7.45;;;5.70;;
17812;SDS011;9030;50.792;8.320;2023-06-24T12:26:00;9.00;;;5.90;;
17812;SDS011;9030;50.792;8.320;2023-06-24T12:28:27;14.02;;;6.68;;
17812;SDS011;9030;50.792;8.320;2023-06-24T12:30:53;9.43;;;7.57;;
17812;SDS011;9030;50.792;8.320;2023-06-24T12:33:20;9.75;;;6.10;;
17812;SDS011;9030;50.792;8.320;2023-06-24T12:35:48;8.43;;;5.75;;
17812;SDS011;9030;50.792;8.320;2023-06-24T12:38:16;7.72;;;5.40;;
17812;SDS011;9030;50.792;8.320;2023-06-24T12:40:42;8.48;;;5.60;;
17812;SDS011;9030;50.792;8.320;2023-06-24T12:43:10;9.68;;;6.57;;
17812;SDS011;9030;50.792;8.320;2023-06-24T12:45:36;7.95;;;5.28;;
17812;SDS011;9030;50.792;8.320;2023-06-24T12:48:04;11.02;;;6.32;;
17812;SDS011;9030;50.792;8.320;2023-06-24T12:50:31;10.50;;;5.93;;
17812;SDS011;9030;50.792;8.320;2023-06-24T12:52:57;7.22;;;5.40;;
17812;SDS011;9030;50.792;8.320;2023-06-24T12:55:25;10.05;;;5.38;;
17812;SDS011;9030;50.792;8.320;2023-06-24T12:57:52;9.40;;;5.25;;
17812;SDS011;9030;50.792;8.320;2023-06-24T13:00:19;7.38;;;5.57;;
17812;SDS011;9030;50.792;8.320;2023-06-24T13:02:46;7.75;;;4.70;;
17812;SDS011;9030;50.792;8.320;2023-06-24T13:05:13;7.47;;;5.20;;
17812;SDS011;9030;50.792;8.320;2023-06-24T13:07:40;8.57;;;5.32;;
17812;SDS011;9030;50.792;8.320;2023-06-24T13:10:07;8.10;;;5.75;;
17812;SDS011;9030;50.792;8.320;2023-06-24T13:12:36;8.93;;;5.60;;
17812;SDS011;9030;50.792;8.320;2023-06-24T13:15:04;7.93;;;5.20;;
17812;SDS011;9030;50.792;8.320;2023-06-24T13:17:31;6.65;;;5.43;;
17812;SDS011;9030;50.792;8.320;2023-06-24T13:19:58;9.20;;;5.07;;
17812;SDS011;9030;50.792;8.320;2023-06-24T13:22:26;8.63;;;5.88;;
17812;SDS011;9030;50.792;8.320;2023-06-24T13:24:53;6.95;;;5.40;;
17812;SDS011;9030;50.792;8.320;2023-06-24T13:27:20;6.50;;;4.72;;
17812;SDS011;9030;50.792;8.320;2023-06-24T13:29:48;11.13;;;6.10;;
17812;SDS011;9030;50.792;8.320;2023-06-24T13:32:14;8.13;;;5.13;;
17812;SDS011;9030;50.792;8.320;2023-06-24T13:34:41;8.18;;;5.45;;
17812;SDS011;9030;50.792;8.320;2023-06-24T13:37:08;8.73;;;5.25;;
17812;SDS011;9030;50.792;8.320;2023-06-24T13:39:35;7.32;;;4.82;;
17812;SDS011;9030;50.792;8.320;2023-06-24T13:42:01;8.30;;;5.88;;
17812;SDS011;9030;50.792;8.320;2023-06-24T13:44:28;7.78;;;5.03;;
17812;SDS011;9030;50.792;8.320;2023-06-24T13:46:56;9.82;;;6.13;;
17812;SDS011;9030;50.792;8.320;2023-06-24T13:49:23;8.50;;;5.30;;
17812;SDS011;9030;50.792;8.320;2023-06-24T13:51:50;9.95;;;6.05;;
17812;SDS011;9030;50.792;8.320;2023-06-24T13:54:17;7.70;;;5.10;;
17812;SDS011;9030;50.792;8.320;2023-06-24T13:56:44;8.35;;;6.18;;
17812;SDS011;9030;50.792;8.320;2023-06-24T13:59:11;9.85;;;5.35;;
17812;SDS011;9030;50.792;8.320;2023-06-24T14:01:37;7.65;;;5.63;;
17812;SDS011;9030;50.792;8.320;2023-06-24T14:04:05;7.72;;;4.78;;
17812;SDS011;9030;50.792;8.320;2023-06-24T14:06:32;10.07;;;5.38;;
17812;SDS011;9030;50.792;8.320;2023-06-24T14:08:59;10.15;;;5.68;;
17812;SDS011;9030;50.792;8.320;2023-06-24T14:11:25;8.75;;;5.40;;
17812;SDS011;9030;50.792;8.320;2023-06-24T14:13:52;10.48;;;4.80;;
17812;SDS011;9030;50.792;8.320;2023-06-24T14:16:19;9.20;;;5.78;;
17812;SDS011;9030;50.792;8.320;2023-06-24T14:18:45;8.95;;;5.82;;
17812;SDS011;9030;50.792;8.320;2023-06-24T14:21:13;8.23;;;5.57;;
17812;SDS011;9030;50.792;8.320;2023-06-24T14:23:40;9.23;;;6.10;;
17812;SDS011;9030;50.792;8.320;2023-06-24T14:26:07;8.82;;;6.07;;
17812;SDS011;9030;50.792;8.320;2023-06-24T14:28:34;8.52;;;5.45;;
17812;SDS011;9030;50.792;8.320;2023-06-24T14:31:00;9.68;;;5.68;;
17812;SDS011;9030;50.792;8.320;2023-06-24T14:33:27;10.23;;;5.90;;
17812;SDS011;9030;50.792;8.320;2023-06-24T14:35:54;8.25;;;4.97;;
17812;SDS011;9030;50.792;8.320;2023-06-24T14:38:22;7.47;;;4.93;;
17812;SDS011;9030;50.792;8.320;2023-06-24T14:40:48;10.55;;;6.18;;
17812;SDS011;9030;50.792;8.320;2023-06-24T14:43:15;7.60;;;5.38;;
17812;SDS011;9030;50.792;8.320;2023-06-24T14:45:43;7.82;;;5.28;;
17812;SDS011;9030;50.792;8.320;2023-06-24T14:48:10;7.93;;;5.38;;
17812;SDS011;9030;50.792;8.320;2023-06-24T14:50:37;9.43;;;5.22;;
17812;SDS011;9030;50.792;8.320;2023-06-24T14:53:03;12.55;;;6.53;;
17812;SDS011;9030;50.792;8.320;2023-06-24T14:55:31;10.00;;;6.53;;